createdAt,value
2019-05-02T00:07:08.276Z,11.1
2019-05-02T00:17:11.727Z,11
2019-05-02T00:27:15.169Z,11
2019-05-02T00:37:23.789Z,10.7
2019-05-02T00:47:30.139Z,10.6
2019-05-02T00:57:33.561Z,10.5
2019-05-02T01:07:37.008Z,10.4
2019-05-02T01:17:40.454Z,10.3
2019-05-02T01:27:43.884Z,10.5
2019-05-02T01:37:50.931Z,10.3
2019-05-02T01:47:59.466Z,10.3
2019-05-02T01:58:02.921Z,10.2
2019-05-02T02:08:06.410Z,9.9
2019-05-02T02:18:10.869Z,9.7
2019-05-02T02:28:14.349Z,9.6
2019-05-02T02:38:17.765Z,9.5
2019-05-02T02:48:21.284Z,9.4
2019-05-02T02:58:24.736Z,9.4
2019-05-02T03:08:28.186Z,9.2
2019-05-02T03:18:39.388Z,9.1
2019-05-02T03:28:57.000Z,9
2019-05-02T03:39:13.186Z,8.9
2019-05-02T03:49:20.929Z,8.9
2019-05-02T03:59:36.729Z,9.1
2019-05-02T04:09:45.287Z,9
2019-05-02T04:19:48.751Z,8.9
2019-05-02T04:29:52.176Z,8.9
2019-05-02T04:39:58.798Z,8.8
2019-05-02T04:50:18.423Z,8.9
2019-05-02T05:00:32.783Z,9
2019-05-02T05:10:41.246Z,9.1
2019-05-02T05:20:52.824Z,9.4
2019-05-02T05:30:58.273Z,9.5
2019-05-02T05:41:02.933Z,9.7
2019-05-02T05:51:24.316Z,10.2
2019-05-02T06:01:33.739Z,10.3
2019-05-02T06:11:41.788Z,10.5
2019-05-02T06:21:46.706Z,10.7
2019-05-02T06:31:50.280Z,11
2019-05-02T06:41:57.189Z,11.4
2019-05-02T06:52:02.112Z,12.1
2019-05-02T07:02:05.565Z,12.6
2019-05-02T07:12:09.717Z,13.1
2019-05-02T07:22:19.974Z,13.4
2019-05-02T07:32:24.554Z,13.9
2019-05-02T07:42:30.144Z,14.3
2019-05-02T07:52:33.886Z,14.7
2019-05-02T08:02:38.334Z,15.2
2019-05-02T08:12:41.763Z,15.4
2019-05-02T08:22:48.867Z,15.6
2019-05-02T08:32:54.246Z,15.6
2019-05-02T08:42:57.691Z,15.9
2019-05-02T08:53:01.106Z,15.9
2019-05-02T09:03:04.801Z,16.1
2019-05-02T09:13:08.291Z,16.6
2019-05-02T09:23:12.349Z,16.6
2019-05-02T09:33:15.922Z,16.8
2019-05-02T09:43:19.352Z,17.2
2019-05-02T09:53:25.416Z,17.3
2019-05-02T10:03:29.161Z,17.6
2019-05-02T10:13:33.006Z,18.1
2019-05-02T10:23:36.480Z,18.4
2019-05-02T10:33:41.929Z,18.5
2019-05-02T10:43:46.853Z,18.4
2019-05-02T10:54:02.871Z,18.6
2019-05-02T11:04:06.334Z,18.7
2019-05-02T11:14:11.658Z,18.6
2019-05-02T11:24:15.492Z,18.7
2019-05-02T11:34:18.983Z,18.7
2019-05-02T11:44:22.729Z,18.7
2019-05-02T11:54:27.715Z,18.8
2019-05-02T12:04:32.555Z,19.3
2019-05-02T12:14:36.427Z,19.6
2019-05-02T12:24:40.763Z,19.8
2019-05-02T12:34:48.868Z,19.9
2019-05-02T12:44:53.227Z,19.7
2019-05-02T12:54:56.841Z,19.4
2019-05-02T13:05:02.234Z,18.8
2019-05-02T13:15:05.983Z,18.5
2019-05-02T13:25:10.427Z,18.3
2019-05-02T13:35:16.341Z,18.1
2019-05-02T13:45:21.528Z,17.8
2019-05-02T13:55:25.207Z,17.8
2019-05-02T14:05:28.666Z,17.5
2019-05-02T14:15:32.451Z,17.2
2019-05-02T14:25:36.014Z,17
2019-05-02T14:35:39.465Z,17
2019-05-02T14:45:43.905Z,17
2019-05-02T14:55:47.473Z,17.2
2019-05-02T15:05:52.603Z,17.4
2019-05-02T15:15:56.161Z,17.4
2019-05-02T15:25:59.646Z,17.4
2019-05-02T15:36:07.252Z,17.5
2019-05-02T15:46:15.566Z,17.4
2019-05-02T15:56:32.382Z,17.3
2019-05-02T16:06:39.342Z,17
2019-05-02T16:16:45.463Z,16.8
2019-05-02T16:26:48.914Z,16.6
2019-05-02T16:36:52.384Z,16.4
2019-05-02T16:46:55.816Z,16.3
2019-05-02T16:56:59.230Z,16.1
2019-05-02T17:07:05.710Z,15.9
2019-05-02T17:17:09.329Z,15.9
2019-05-02T17:27:20.314Z,15.9
2019-05-02T17:37:28.061Z,15.8
2019-05-02T17:47:36.028Z,15.7
2019-05-02T17:57:41.953Z,15.6
2019-05-02T18:07:45.503Z,15.6
2019-05-02T18:17:48.941Z,15.6
2019-05-02T18:27:52.414Z,15.5
2019-05-02T18:37:55.841Z,15.3
2019-05-02T18:48:01.976Z,14.7
2019-05-02T18:58:10.378Z,14.2
2019-05-02T19:08:28.147Z,13.8
2019-05-02T19:18:54.210Z,13.6
2019-05-02T19:29:02.431Z,13.6
2019-05-02T19:39:09.646Z,13.4
2019-05-02T19:49:16.117Z,13.1
2019-05-02T19:59:22.364Z,13.1
2019-05-02T20:09:33.040Z,13.1
2019-05-02T20:19:36.451Z,13
2019-05-02T20:29:39.854Z,13
2019-05-02T20:39:43.274Z,13.2
2019-05-02T20:49:46.714Z,13
2019-05-02T20:59:52.286Z,12.9
2019-05-02T21:09:56.182Z,12.9
2019-05-02T21:20:01.341Z,12.9
2019-05-02T21:30:05.466Z,12.9
2019-05-02T21:40:08.906Z,12.9
2019-05-02T21:50:12.434Z,12.7
2019-05-02T22:00:15.856Z,12.6
2019-05-02T22:10:19.322Z,12.7
2019-05-02T22:20:22.992Z,12.8
2019-05-02T22:30:26.477Z,12.8
2019-05-02T22:40:29.923Z,12.7
2019-05-02T22:50:35.538Z,12.7
2019-05-02T23:00:38.971Z,12.7
2019-05-02T23:10:42.389Z,12.5
2019-05-02T23:20:45.820Z,12.5
2019-05-02T23:30:49.289Z,12.6
2019-05-02T23:40:52.737Z,12.5
2019-05-02T23:50:56.169Z,12.5
